Terminal Aerodrome Forecast
Issued by NWS

Home | Current Version | Previous Version | Text Only | Print | Product List | Glossary On
Versions: 1 2 3 4 5 6 7 8 9 10 11 12 13 14
000
FTUS45 KFGZ 242320
TAFPRC
TAF
KPRC 242320Z 2500/2524 28009KT P6SM SCT070 BKN120
      TEMPO 2500/2502 VRB10G20KT P6SM -TSRA BKN060CB
     FM250200 27006KT P6SM SCT120
      TEMPO 2519/2523 VRB10G20KT P6SM -TSRA BKN040CB=

USA.gov is the U.S. government's official web portal to all federal, state and local government web resources and services.